Time;durP1;ratioP1;P1;durP2;ratioP2;P2;SDS_P1;SDS_P2;PMS_P1;PMS_P2;Temp;Humidity;BMP_temperature;BMP_pressure;BME280_temperature;BME280_humidity;BME280_pressure;Samples;Min_cycle;Max_cycle;Signal;HPM_P1;HPM_P2
2023/09/17 00:00:30;;;;;;;11.23;7.75;;;;;;;21.80;77.90;101319.63;4991826;28;20487;-80
2023/09/17 00:02:56;;;;;;;10.30;6.72;;;;;;;21.80;78.09;101325.09;4992646;28;20076;-82
2023/09/17 00:05:22;;;;;;;11.73;7.30;;;;;;;21.79;77.96;101309.69;4991734;28;20093;-80
2023/09/17 00:07:47;;;;;;;12.38;7.50;;;;;;;21.75;77.87;101311.06;4991903;28;20093;-81
2023/09/17 00:10:13;;;;;;;16.80;7.75;;;;;;;21.58;78.31;101281.06;4992114;28;20038;-81
2023/09/17 00:12:39;;;;;;;10.27;6.82;;;;;;;21.75;78.39;101306.44;4991644;28;20026;-81
2023/09/17 00:15:05;;;;;;;12.00;7.57;;;;;;;21.71;78.25;101302.41;4991964;28;20034;-81
2023/09/17 00:17:31;;;;;;;18.98;8.85;;;;;;;21.77;78.09;101303.56;4956596;28;20046;-82
2023/09/17 00:19:56;;;;;;;13.10;8.07;;;;;;;21.78;77.63;101305.22;4991254;28;20045;-80
2023/09/17 00:22:22;;;;;;;8.82;7.28;;;;;;;21.75;77.98;101305.59;4992099;28;20022;-80
2023/09/17 00:24:47;;;;;;;10.63;7.63;;;;;;;21.74;78.02;101304.78;4992076;28;20048;-81
2023/09/17 00:27:13;;;;;;;14.57;8.35;;;;;;;21.75;77.80;101300.13;4991637;28;20494;-81
2023/09/17 00:29:38;;;;;;;10.18;7.90;;;;;;;21.68;77.96;101303.59;4991647;28;20026;-80
2023/09/17 00:32:04;;;;;;;12.75;7.00;;;;;;;21.70;77.95;101301.53;4991692;28;20023;-80
2023/09/17 00:34:30;;;;;;;11.68;8.27;;;;;;;21.63;78.26;101295.06;4991355;28;20034;-80
2023/09/17 00:36:55;;;;;;;12.68;7.70;;;;;;;21.53;78.70;101290.84;4991754;28;20033;-80
2023/09/17 00:39:20;;;;;;;13.15;7.78;;;;;;;21.45;78.78;101286.28;4991056;28;20117;-82
2023/09/17 00:41:46;;;;;;;12.30;7.65;;;;;;;21.34;79.12;101274.88;4991151;28;20034;-80
2023/09/17 00:44:11;;;;;;;13.50;8.05;;;;;;;21.41;79.25;101282.19;4991159;28;20069;-80
2023/09/17 00:46:38;;;;;;;13.68;7.75;;;;;;;21.37;79.44;101278.13;4991102;28;20050;-80
2023/09/17 00:49:04;;;;;;;11.90;8.27;;;;;;;21.32;79.58;101272.31;4990031;28;20026;-80
2023/09/17 00:51:30;;;;;;;18.65;9.20;;;;;;;21.26;80.04;101269.44;4990872;28;20030;-81
2023/09/17 00:53:58;;;;;;;13.45;9.23;;;;;;;21.22;80.22;101258.00;4990980;28;20041;-81
2023/09/17 00:56:26;;;;;;;15.18;8.63;;;;;;;21.31;80.36;101269.78;4990841;28;20543;-82
2023/09/17 00:58:52;;;;;;;10.70;7.65;;;;;;;21.28;80.15;101264.66;4991748;28;20023;-80
2023/09/17 01:01:20;;;;;;;10.38;7.95;;;;;;;20.79;80.26;101187.41;4990952;28;20038;-80
2023/09/17 01:03:46;;;;;;;10.32;8.02;;;;;;;21.33;80.12;101268.56;4990921;28;20034;-80
2023/09/17 01:06:12;;;;;;;16.08;9.05;;;;;;;21.29;80.15;101258.97;4991031;28;20026;-81
2023/09/17 01:08:40;;;;;;;12.50;7.68;;;;;;;21.35;79.94;101268.34;4990858;28;20054;-81
2023/09/17 01:11:07;;;;;;;14.98;9.52;;;;;;;21.39;79.47;101270.56;4990378;28;20485;-81
2023/09/17 01:13:39;;;;;;;13.88;8.95;;;;;;;21.35;79.36;101262.88;4990179;28;20106;-82
2023/09/17 01:16:05;;;;;;;10.73;7.45;;;;;;;21.38;79.20;101266.13;4990044;28;20078;-82
2023/09/17 01:18:32;;;;;;;17.83;8.80;;;;;;;21.37;78.95;101269.91;4990214;28;20147;-82
2023/09/17 01:21:32;;;;;;;10.50;7.72;;;;;;;21.39;79.12;101262.38;4990166;28;20077;-81
2023/09/17 01:24:20;;;;;;;15.68;9.00;;;;;;;21.37;78.87;101252.63;4891951;29;20124;-82
2023/09/17 01:27:18;;;;;;;15.65;9.55;;;;;;;21.44;78.93;101265.41;4878226;29;20041;-81
2023/09/17 01:29:46;;;;;;;13.55;10.00;;;;;;;21.31;78.61;101240.53;4836286;29;20412;-80
2023/09/17 01:32:12;;;;;;;16.48;8.32;;;;;;;21.40;78.74;101250.41;4836083;29;20132;-81
2023/09/17 01:34:43;;;;;;;16.85;9.45;;;;;;;21.31;78.41;101235.06;4836380;29;20065;-80
2023/09/17 01:37:17;;;;;;;11.90;8.52;;;;;;;21.46;78.53;101262.50;4836301;29;20053;-83
2023/09/17 01:39:50;;;;;;;13.98;10.00;;;;;;;21.41;78.72;101253.94;4836001;29;20069;-81
2023/09/17 01:42:19;;;;;;;12.82;9.35;;;;;;;21.41;78.62;101253.94;4836181;29;20045;-83
2023/09/17 01:44:46;;;;;;;12.20;9.15;;;;;;;21.40;78.52;101258.59;4836020;29;20034;-80
2023/09/17 01:47:12;;;;;;;13.38;9.25;;;;;;;21.39;78.59;101247.81;4835917;29;20046;-83
2023/09/17 01:49:39;;;;;;;11.88;9.13;;;;;;;21.29;79.06;101245.31;4836778;29;20050;-82
2023/09/17 01:52:05;;;;;;;19.63;10.00;;;;;;;21.25;79.44;101243.13;4835757;29;20201;-81
2023/09/17 01:54:30;;;;;;;12.85;9.68;;;;;;;21.30;79.34;101247.03;4837015;29;20086;-81
2023/09/17 01:56:56;;;;;;;12.30;9.63;;;;;;;21.27;79.56;101241.91;4836749;29;20057;-81
2023/09/17 01:59:21;;;;;;;14.25;8.60;;;;;;;21.25;79.57;101238.50;4844676;29;20183;-81
2023/09/17 02:01:46;;;;;;;17.73;9.57;;;;;;;21.27;79.79;101243.78;4909249;29;20035;-81
2023/09/17 02:04:12;;;;;;;16.05;9.13;;;;;;;21.27;79.85;101241.91;4912774;28;20032;-78
2023/09/17 02:06:37;;;;;;;12.07;9.63;;;;;;;21.27;79.81;101236.44;4990128;28;20041;-81
2023/09/17 02:09:08;;;;;;;18.50;9.98;;;;;;;21.21;80.01;101230.81;4990034;28;20038;-80
2023/09/17 02:11:34;;;;;;;14.52;10.15;;;;;;;21.27;80.18;101233.69;4989522;28;20487;-82
2023/09/17 02:14:00;;;;;;;18.15;10.02;;;;;;;21.30;80.13;101230.59;4989383;28;20037;-80
2023/09/17 02:16:25;;;;;;;17.60;10.38;;;;;;;21.32;80.07;101233.13;4989556;28;20022;-82
2023/09/17 02:18:51;;;;;;;12.25;10.32;;;;;;;21.25;79.96;101215.75;4989365;28;20026;-82
2023/09/17 02:21:16;;;;;;;18.35;10.43;;;;;;;21.41;79.88;101227.44;4939020;28;20041;-81
2023/09/17 02:23:42;;;;;;;19.55;10.75;;;;;;;21.44;79.66;101223.50;4990055;28;20026;-80
2023/09/17 02:26:08;;;;;;;18.55;11.13;;;;;;;21.49;79.57;101223.81;4989340;28;20100;-80
2023/09/17 02:28:33;;;;;;;14.93;10.80;;;;;;;21.57;79.07;101231.97;4989703;28;20022;-82
2023/09/17 02:30:59;;;;;;;13.65;10.65;;;;;;;21.54;78.97;101221.38;4989222;28;20045;-82
2023/09/17 02:33:25;;;;;;;14.57;11.68;;;;;;;21.62;79.13;101235.00;4989537;28;20027;-81
2023/09/17 02:35:50;;;;;;;12.57;10.18;;;;;;;21.58;79.06;101229.06;4989816;28;20053;-79
2023/09/17 02:38:17;;;;;;;29.33;12.65;;;;;;;21.65;78.80;101224.53;4989599;28;20113;-81
2023/09/17 02:40:43;;;;;;;16.50;11.43;;;;;;;21.57;79.11;101210.06;4988858;28;20036;-80
2023/09/17 02:43:09;;;;;;;17.52;11.27;;;;;;;21.69;79.11;101220.41;4987938;28;20026;-82
2023/09/17 02:45:35;;;;;;;14.45;11.25;;;;;;;21.71;78.94;101229.28;4988181;28;20038;-82
2023/09/17 02:48:01;;;;;;;13.48;10.52;;;;;;;21.52;78.62;101190.59;4988171;28;20085;-81
2023/09/17 02:50:27;;;;;;;14.05;10.63;;;;;;;21.61;78.84;101203.19;4988387;28;20030;-81
2023/09/17 02:52:52;;;;;;;14.93;11.52;;;;;;;21.78;78.35;101228.56;4988770;28;20029;-81
2023/09/17 02:55:18;;;;;;;21.42;11.82;;;;;;;21.81;78.32;101222.72;4989613;28;20118;-80
2023/09/17 02:57:43;;;;;;;18.67;11.38;;;;;;;21.81;78.01;101230.94;4989539;28;20564;-81
2023/09/17 03:00:10;;;;;;;18.77;10.32;;;;;;;21.80;77.95;101226.50;4989484;28;20053;-81
2023/09/17 03:02:36;;;;;;;16.52;10.05;;;;;;;21.78;77.69;101225.81;4987629;28;20097;-80
2023/09/17 03:05:01;;;;;;;17.63;11.02;;;;;;;21.80;77.58;101230.09;4989844;28;20176;-83
2023/09/17 03:07:27;;;;;;;13.65;10.80;;;;;;;21.49;77.52;101185.50;4990224;28;20092;-80
2023/09/17 03:09:52;;;;;;;16.70;10.20;;;;;;;21.64;77.69;101227.47;4957169;28;20049;-79
2023/09/17 03:12:18;;;;;;;13.48;10.90;;;;;;;21.49;78.00;101213.72;4993181;28;20040;-80
2023/09/17 03:14:43;;;;;;;14.68;11.02;;;;;;;21.60;78.18;101226.97;4993876;28;20031;-80
2023/09/17 03:17:09;;;;;;;25.02;12.30;;;;;;;21.61;78.07;101234.19;4996566;28;20030;-82
2023/09/17 03:19:34;;;;;;;12.95;10.77;;;;;;;21.61;78.13;101238.78;5006068;28;20081;-77
2023/09/17 03:22:01;;;;;;;23.08;12.25;;;;;;;21.63;77.88;101251.25;5016140;28;20053;-83
2023/09/17 03:24:27;;;;;;;22.33;12.55;;;;;;;21.61;77.80;101255.22;5014204;28;20037;-79
2023/09/17 03:26:52;;;;;;;35.22;16.88;;;;;;;21.58;77.52;101252.84;5012732;28;20137;-80
2023/09/17 03:29:18;;;;;;;53.13;25.75;;;;;;;21.53;77.75;101247.91;4996774;28;20034;-82
2023/09/17 03:31:45;;;;;;;27.70;17.40;;;;;;;21.54;77.63;101254.22;4980408;28;20034;-80
2023/09/17 03:34:11;;;;;;;24.40;12.48;;;;;;;21.50;78.06;101242.78;4994904;28;20383;-78
2023/09/17 03:36:37;;;;;;;25.67;12.65;;;;;;;21.57;77.69;101248.38;4991623;28;20037;-80
2023/09/17 03:39:05;;;;;;;28.05;12.70;;;;;;;21.52;77.20;101238.00;4992973;28;20049;-81
2023/09/17 03:41:31;;;;;;;19.33;13.88;;;;;;;21.53;77.29;101247.91;4992515;28;20034;-81
2023/09/17 03:43:56;;;;;;;21.60;11.57;;;;;;;21.48;76.84;101252.22;4992247;28;20853;-82
2023/09/17 03:46:22;;;;;;;15.95;11.57;;;;;;;21.36;77.06;101246.31;4970177;28;20121;-79
2023/09/17 03:48:47;;;;;;;17.95;12.55;;;;;;;21.23;77.10;101221.41;4973056;28;20027;-81
2023/09/17 03:51:13;;;;;;;21.05;11.77;;;;;;;21.27;77.34;101241.03;4973055;28;20035;-81
2023/09/17 03:53:38;;;;;;;23.05;12.27;;;;;;;21.22;77.25;101241.59;4973435;28;20023;-80
2023/09/17 03:56:04;;;;;;;19.40;10.60;;;;;;;21.21;77.05;101242.63;4972943;28;20037;-81
2023/09/17 03:58:30;;;;;;;24.38;12.07;;;;;;;21.20;77.04;101249.13;4972537;28;20491;-83
2023/09/17 04:00:56;;;;;;;14.70;10.43;;;;;;;21.19;76.94;101249.31;4972883;28;20503;-84
2023/09/17 04:03:21;;;;;;;16.95;11.18;;;;;;;21.00;76.63;101226.78;4973176;28;20084;-81
2023/09/17 04:05:49;;;;;;;24.85;11.73;;;;;;;21.12;76.66;101250.03;4972807;28;20023;-83
2023/09/17 04:08:15;;;;;;;22.77;12.32;;;;;;;21.06;76.88;101241.63;4973028;28;20114;-81
2023/09/17 04:10:40;;;;;;;15.20;10.70;;;;;;;21.06;76.66;101247.09;4972866;28;20463;-83
2023/09/17 04:13:06;;;;;;;15.70;10.40;;;;;;;21.03;76.38;101242.00;4972001;28;20046;-82
2023/09/17 04:15:32;;;;;;;25.70;11.98;;;;;;;21.08;76.46;101245.03;4972858;28;20082;-81
2023/09/17 04:17:57;;;;;;;16.85;10.52;;;;;;;21.03;76.48;101242.00;4972435;28;20031;-82
2023/09/17 04:20:27;;;;;;;26.85;12.18;;;;;;;21.08;76.40;101245.03;4972472;28;20035;-80
2023/09/17 04:22:52;;;;;;;20.52;9.93;;;;;;;21.01;76.14;101247.63;4972932;28;20498;-82
2023/09/17 04:25:19;;;;;;;26.85;12.13;;;;;;;21.06;76.34;101266.25;4971513;28;20039;-85
2023/09/17 04:27:46;;;;;;;26.98;11.57;;;;;;;21.09;75.77;101258.59;4972751;28;20030;-83
2023/09/17 04:30:16;;;;;;;22.80;10.95;;;;;;;20.96;75.94;101233.63;4973133;28;20034;-85
2023/09/17 04:32:43;;;;;;;20.23;11.20;;;;;;;21.14;75.84;101266.25;4973093;28;20488;-87
2023/09/17 04:35:11;;;;;;;27.92;12.32;;;;;;;21.02;75.63;101238.41;4972638;28;20041;-83
2023/09/17 04:37:39;;;;;;;23.73;10.45;;;;;;;21.18;75.61;101267.59;4973509;28;20060;-85
2023/09/17 04:40:08;;;;;;;21.02;10.82;;;;;;;21.10;75.42;101251.19;4972546;28;20038;-85
2023/09/17 04:42:35;;;;;;;27.33;10.45;;;;;;;21.19;75.32;101266.56;4972681;28;20023;-83
2023/09/17 04:45:02;;;;;;;26.13;12.90;;;;;;;21.14;75.49;101274.44;4972889;28;20038;-83
2023/09/17 04:47:28;;;;;;;16.88;11.30;;;;;;;21.16;75.76;101272.38;4987937;28;20085;-83
2023/09/17 04:49:53;;;;;;;36.33;13.32;;;;;;;21.12;75.61;101266.44;4991791;28;20105;-80
2023/09/17 04:52:18;;;;;;;32.03;11.02;;;;;;;21.07;75.53;101248.78;4991441;28;20485;-83
2023/09/17 04:54:45;;;;;;;14.73;10.75;;;;;;;21.13;75.47;101268.13;4991993;28;20030;-83
2023/09/17 04:57:10;;;;;;;21.58;11.10;;;;;;;21.12;75.50;101266.44;4974198;28;20034;-85
2023/09/17 04:59:35;;;;;;;21.05;10.65;;;;;;;21.11;75.56;101264.72;4991807;28;20494;-85
2023/09/17 05:02:01;;;;;;;20.88;11.32;;;;;;;21.13;75.44;101264.53;4993056;28;20022;-84
2023/09/17 05:04:26;;;;;;;24.02;11.07;;;;;;;21.17;75.27;101274.09;4975126;28;20072;-85
2023/09/17 05:06:52;;;;;;;13.70;10.25;;;;;;;21.04;75.35;101247.28;4992057;28;20038;-84
2023/09/17 05:09:18;;;;;;;28.40;13.63;;;;;;;21.22;75.28;101266.22;4991761;28;20090;-84
2023/09/17 05:11:43;;;;;;;26.75;12.90;;;;;;;21.21;74.93;101269.97;4992343;28;20027;-83
2023/09/17 05:14:09;;;;;;;23.95;11.93;;;;;;;21.31;74.81;101264.28;4990732;28;20554;-83
2023/09/17 05:16:35;;;;;;;28.92;16.08;;;;;;;21.37;74.56;101264.44;4941699;28;20061;-84
2023/09/17 05:19:01;;;;;;;45.08;19.23;;;;;;;21.37;74.54;101264.44;4992147;28;20546;-87
2023/09/17 05:21:27;;;;;;;42.92;16.25;;;;;;;21.46;74.39;101268.84;4942297;28;20129;-85
2023/09/17 05:23:52;;;;;;;45.05;19.15;;;;;;;21.47;74.42;101250.50;4991960;28;20037;-87
2023/09/17 05:26:17;;;;;;;33.83;17.05;;;;;;;21.63;73.45;101264.94;4993416;28;20040;-88
2023/09/17 05:28:44;;;;;;;35.60;15.25;;;;;;;21.66;73.16;101263.72;4991601;28;20466;-81
2023/09/17 05:31:09;;;;;;;46.50;17.38;;;;;;;21.75;72.79;101264.53;4991816;28;20034;-81
2023/09/17 05:33:35;;;;;;;33.72;14.65;;;;;;;21.86;72.66;101272.34;4990883;28;20038;-82
2023/09/17 05:36:00;;;;;;;38.22;13.57;;;;;;;21.93;72.30;101267.84;4992453;28;20038;-80
2023/09/17 05:38:27;;;;;;;40.38;19.33;;;;;;;22.00;72.00;101266.94;4990670;28;20038;-82
2023/09/17 05:40:53;;;;;;;33.40;14.88;;;;;;;22.03;71.87;101254.75;4989711;28;20137;-82
2023/09/17 05:43:18;;;;;;;34.03;13.95;;;;;;;22.03;71.79;101241.91;4991365;28;20517;-81
2023/09/17 05:45:44;;;;;;;26.98;13.13;;;;;;;22.26;71.45;101273.94;4993211;28;20030;-85
2023/09/17 05:48:09;;;;;;;42.97;17.67;;;;;;;22.34;71.14;101271.97;4995794;28;20030;-82
2023/09/17 05:50:35;;;;;;;25.02;11.77;;;;;;;22.25;70.97;101234.69;4996182;28;20030;-81
2023/09/17 05:53:00;;;;;;;21.42;10.68;;;;;;;22.51;70.57;101268.00;4991925;28;20104;-79
2023/09/17 05:55:26;;;;;;;39.83;14.38;;;;;;;22.54;70.72;101262.16;4994632;28;20056;-84
2023/09/17 05:57:51;;;;;;;25.33;12.77;;;;;;;22.61;70.50;101271.34;4994316;28;20030;-85
2023/09/17 06:00:17;;;;;;;38.55;12.75;;;;;;;22.56;70.02;101243.66;4994659;28;20436;-81
2023/09/17 06:02:43;;;;;;;24.73;9.52;;;;;;;22.70;70.27;101270.25;4991762;28;20023;-79
2023/09/17 06:05:09;;;;;;;27.10;13.55;;;;;;;22.72;70.27;101268.16;4990471;28;20050;-83
2023/09/17 06:07:34;;;;;;;46.17;15.52;;;;;;;22.76;70.29;101260.41;4991240;28;20517;-85
2023/09/17 06:10:00;;;;;;;30.02;14.00;;;;;;;22.81;70.32;101259.84;4990312;28;20805;-85
2023/09/17 06:12:25;;;;;;;39.85;16.55;;;;;;;22.89;69.91;101268.84;4989854;28;20027;-82
2023/09/17 06:14:50;;;;;;;22.38;11.57;;;;;;;22.98;69.96;101261.34;4989892;28;20106;-82
2023/09/17 06:17:16;;;;;;;19.58;11.80;;;;;;;23.04;69.62;101271.56;4990153;28;20453;-82
2023/09/17 06:19:42;;;;;;;20.33;10.43;;;;;;;23.03;69.47;101273.47;4989641;28;20034;-80
2023/09/17 06:22:08;;;;;;;24.50;11.90;;;;;;;23.08;69.72;101271.03;4990397;28;20030;-81
2023/09/17 06:24:33;;;;;;;43.50;12.75;;;;;;;23.15;69.70;101290.28;4989434;28;20093;-79
2023/09/17 06:26:58;;;;;;;21.75;10.70;;;;;;;23.02;69.54;101257.19;4990218;28;20561;-83
2023/09/17 06:29:24;;;;;;;18.80;11.63;;;;;;;22.96;69.92;101239.63;4954847;28;20050;-83
2023/09/17 06:31:50;;;;;;;31.33;12.43;;;;;;;23.29;69.56;101281.22;4990735;28;20019;-84
2023/09/17 06:34:15;;;;;;;20.38;10.43;;;;;;;23.35;69.40;101279.59;4989893;28;20035;-81
2023/09/17 06:36:41;;;;;;;31.33;14.45;;;;;;;23.35;69.00;101291.41;4954754;28;20038;-77
2023/09/17 06:39:07;;;;;;;23.30;10.10;;;;;;;23.37;69.06;101283.84;4989609;28;20034;-79
2023/09/17 06:41:33;;;;;;;28.80;10.82;;;;;;;23.44;68.75;101295.78;4989510;28;20034;-78
2023/09/17 06:43:59;;;;;;;28.38;13.65;;;;;;;23.48;69.38;101297.13;4989396;28;20034;-82
2023/09/17 06:46:25;;;;;;;43.10;19.90;;;;;;;23.61;68.96;101297.25;4989598;28;20157;-81
2023/09/17 06:48:52;;;;;;;42.90;18.25;;;;;;;23.69;68.88;101293.56;4989332;28;20038;-78
2023/09/17 06:51:17;;;;;;;34.33;13.18;;;;;;;23.87;68.61;101290.38;4989129;28;20108;-81
2023/09/17 06:53:43;;;;;;;40.35;10.32;;;;;;;23.91;68.81;101294.44;4989185;28;20030;-79
2023/09/17 06:56:10;;;;;;;30.48;9.43;;;;;;;23.82;69.09;101266.25;4989661;28;20060;-81
2023/09/17 06:58:35;;;;;;;28.88;10.25;;;;;;;24.05;68.97;101282.53;4990132;28;20548;-80
2023/09/17 07:01:01;;;;;;;25.90;9.32;;;;;;;24.11;68.36;101279.00;4990344;28;20038;-79
2023/09/17 07:03:26;;;;;;;26.20;10.52;;;;;;;24.22;67.47;101278.47;4990536;28;20106;-82
2023/09/17 07:05:52;;;;;;;19.13;10.27;;;;;;;24.24;66.85;101265.41;4990714;28;20388;-81
2023/09/17 07:08:17;;;;;;;35.80;10.13;;;;;;;24.37;67.34;101290.28;4989710;28;20454;-80
2023/09/17 07:10:44;;;;;;;51.65;11.60;;;;;;;24.44;67.41;101288.41;4989943;28;20034;-81
2023/09/17 07:13:09;;;;;;;21.52;9.18;;;;;;;24.49;66.79;101301.56;4989344;28;20033;-83
2023/09/17 07:15:35;;;;;;;42.60;9.68;;;;;;;24.46;66.81;101291.81;4989736;28;20026;-80
2023/09/17 07:18:01;;;;;;;34.72;9.25;;;;;;;24.49;66.27;101288.69;4989397;28;20101;-83
2023/09/17 07:20:26;;;;;;;44.00;11.43;;;;;;;24.62;66.21;101290.66;4989369;28;20093;-80
2023/09/17 07:22:51;;;;;;;14.48;7.97;;;;;;;24.38;66.38;101253.44;4991024;28;20500;-78
2023/09/17 07:25:17;;;;;;;37.05;10.18;;;;;;;24.66;66.47;101300.22;4989601;28;20022;-80
2023/09/17 07:27:42;;;;;;;40.72;12.30;;;;;;;24.62;65.45;101298.91;4989525;28;20534;-81
2023/09/17 07:30:08;;;;;;;14.90;7.70;;;;;;;24.56;65.89;101303.31;4971574;28;20113;-85
2023/09/17 07:32:34;;;;;;;67.75;16.45;;;;;;;24.44;65.58;101282.03;4990271;28;20034;-84
2023/09/17 07:35:02;;;;;;;26.10;9.35;;;;;;;24.54;65.58;101312.81;4991462;28;20383;-81
2023/09/17 07:37:28;;;;;;;19.92;8.18;;;;;;;24.45;66.17;101301.13;4992767;28;20037;-83
2023/09/17 07:39:56;;;;;;;21.00;8.90;;;;;;;24.55;66.34;101311.78;4991622;28;20030;-83
2023/09/17 07:42:22;;;;;;;23.77;9.63;;;;;;;24.66;66.20;101308.47;4976773;28;20525;-83
2023/09/17 07:44:48;;;;;;;18.67;8.50;;;;;;;24.69;66.49;101308.91;4991336;28;20019;-86
2023/09/17 07:47:13;;;;;;;20.15;9.45;;;;;;;24.82;66.37;101306.31;4991172;28;20399;-83
2023/09/17 07:49:39;;;;;;;24.42;10.20;;;;;;;24.83;65.70;101315.41;4991618;28;20026;-85
2023/09/17 07:52:05;;;;;;;34.05;9.95;;;;;;;24.75;65.32;101275.09;4993425;28;20034;-82
2023/09/17 07:54:36;;;;;;;20.08;8.77;;;;;;;24.98;65.52;101304.28;5007743;28;20034;-85
2023/09/17 07:57:04;;;;;;;28.38;9.85;;;;;;;25.12;65.00;101301.41;4996645;28;20470;-81
2023/09/17 07:59:29;;;;;;;22.63;7.65;;;;;;;25.00;63.91;101260.88;4961843;28;20035;-84
2023/09/17 08:01:55;;;;;;;14.75;7.43;;;;;;;25.25;63.56;101309.75;4994938;28;20027;-82
2023/09/17 08:04:20;;;;;;;17.50;8.63;;;;;;;25.08;63.48;101279.97;4996732;28;20491;-82
2023/09/17 08:06:48;;;;;;;17.20;7.90;;;;;;;24.95;63.23;101274.41;5001524;28;20038;-82
2023/09/17 08:09:14;;;;;;;28.35;8.25;;;;;;;25.10;63.67;101308.19;5013880;28;20034;-79
2023/09/17 08:11:39;;;;;;;25.00;8.50;;;;;;;25.05;63.90;101295.00;4965767;28;20047;-78
2023/09/17 08:14:05;;;;;;;13.48;8.27;;;;;;;25.36;63.29;101295.38;5017511;28;20066;-79
2023/09/17 08:16:31;;;;;;;12.27;7.72;;;;;;;25.51;63.19;101292.50;4985638;28;20110;-83
2023/09/17 08:18:57;;;;;;;32.90;9.15;;;;;;;25.65;63.33;101297.03;5005639;28;20032;-81
2023/09/17 08:21:23;;;;;;;32.55;9.20;;;;;;;25.76;63.37;101301.91;5004187;28;20050;-81
2023/09/17 08:23:49;;;;;;;16.42;8.23;;;;;;;25.79;62.62;101301.50;4994619;28;20034;-87
2023/09/17 08:26:14;;;;;;;19.10;7.28;;;;;;;25.93;62.08;101294.13;4975437;28;20030;-83
2023/09/17 08:28:43;;;;;;;31.67;8.07;;;;;;;25.93;62.38;101303.22;4993033;28;20026;-85
2023/09/17 08:31:09;;;;;;;23.10;6.97;;;;;;;25.87;62.64;101298.56;4993078;28;20459;-90
2023/09/17 08:33:35;;;;;;;19.10;6.65;;;;;;;25.93;62.48;101302.41;4992955;28;20038;-88
2023/09/17 08:36:02;;;;;;;32.15;9.40;;;;;;;25.92;62.74;101290.53;4994692;28;20121;-92
2023/09/17 08:38:29;;;;;;;14.90;6.32;;;;;;;25.77;62.49;101275.22;4967537;28;20042;-89
2023/09/17 08:40:57;;;;;;;21.25;6.95;;;;;;;25.77;61.35;101267.81;4994444;28;20038;-91
2023/09/17 08:43:23;;;;;;;13.98;6.18;;;;;;;25.97;61.66;101290.72;4993696;28;20023;-87
2023/09/17 08:45:50;;;;;;;24.65;7.22;;;;;;;26.08;61.61;101288.44;4994198;28;20112;-88
2023/09/17 08:48:17;;;;;;;18.02;6.82;;;;;;;26.34;61.71;101288.47;4993090;28;20112;-92
2023/09/17 08:50:48;;;;;;;23.00;7.10;;;;;;;26.28;61.27;101279.13;4993699;28;20395;-88
2023/09/17 08:53:18;;;;;;;26.35;7.32;;;;;;;26.28;59.40;101292.06;4995516;28;20029;-90
2023/09/17 08:55:45;;;;;;;14.35;6.80;;;;;;;26.07;60.68;101286.72;4994268;28;20049;-89
2023/09/17 08:58:17;;;;;;;20.33;6.53;;;;;;;26.22;60.79;101296.53;4977071;28;20394;-89
2023/09/17 09:00:49;;;;;;;12.95;6.15;;;;;;;26.20;61.03;101303.31;4975848;28;20097;-91
2023/09/17 09:03:17;;;;;;;21.10;6.93;;;;;;;26.11;60.90;101290.78;4992541;28;20044;-91
2023/09/17 09:05:44;;;;;;;28.75;7.53;;;;;;;26.14;60.69;101293.09;4992350;28;20129;-87
2023/09/17 09:08:12;;;;;;;19.60;6.10;;;;;;;26.34;60.59;101294.00;4993020;28;20030;-89
2023/09/17 09:10:38;;;;;;;23.70;6.63;;;;;;;26.24;60.45;101296.31;4993032;28;20050;-89
2023/09/17 09:13:04;;;;;;;23.83;7.60;;;;;;;26.41;60.15;101290.19;4974932;28;20432;-86
2023/09/17 09:15:30;;;;;;;19.83;6.22;;;;;;;26.48;59.85;101295.72;4992701;28;20448;-91
2023/09/17 09:17:56;;;;;;;23.00;6.25;;;;;;;26.35;59.42;101303.97;4992742;28;20033;-90
2023/09/17 09:20:21;;;;;;;17.45;7.03;;;;;;;26.35;59.97;101292.94;4993546;28;20421;-91
2023/09/17 09:22:47;;;;;;;18.60;5.93;;;;;;;26.44;59.40;101295.28;4993120;28;20018;-91
2023/09/17 09:25:14;;;;;;;20.95;6.13;;;;;;;26.47;59.31;101299.50;4992565;28;20105;-91
2023/09/17 09:27:40;;;;;;;20.50;7.32;;;;;;;26.30;60.44;101292.69;4992038;28;20034;-91
2023/09/17 09:30:16;;;;;;;20.63;6.82;;;;;;;26.35;59.63;101287.41;4992883;28;20034;-91
2023/09/17 09:32:42;;;;;;;15.75;5.07;;;;;;;26.41;59.94;101305.88;4992938;28;20109;-89
2023/09/17 09:35:09;;;;;;;24.17;7.53;;;;;;;26.28;59.21;101278.28;4993198;28;20053;-89
2023/09/17 09:37:35;;;;;;;24.23;6.45;;;;;;;26.51;59.79;101311.84;4992748;28;20026;-89
2023/09/17 09:40:01;;;;;;;11.68;5.80;;;;;;;26.40;59.17;101271.06;4991213;28;20041;-89
2023/09/17 09:42:27;;;;;;;10.27;5.43;;;;;;;26.68;59.09;101296.53;4991546;28;20026;-85
2023/09/17 09:44:53;;;;;;;21.30;7.22;;;;;;;26.57;58.74;101299.09;4991293;28;20026;-89
2023/09/17 09:47:22;;;;;;;19.85;5.28;;;;;;;26.47;58.96;101282.97;4991436;28;20486;-88
2023/09/17 09:49:48;;;;;;;13.10;5.93;;;;;;;26.50;58.51;101283.38;4992109;28;20034;-88
2023/09/17 09:52:15;;;;;;;20.40;5.82;;;;;;;26.66;58.49;101293.16;4991814;28;20038;-89
2023/09/17 09:54:41;;;;;;;41.40;7.90;;;;;;;26.71;58.56;101290.59;4993654;28;20023;-87
2023/09/17 09:57:06;;;;;;;16.88;6.50;;;;;;;26.43;59.24;101248.56;4995352;28;20038;-94
2023/09/17 09:59:34;;;;;;;33.47;6.78;;;;;;;26.49;58.46;101280.84;4992138;28;20033;-90
2023/09/17 10:02:02;;;;;;;19.67;6.57;;;;;;;26.74;59.24;101286.53;4991748;28;20650;-93
2023/09/17 10:04:28;;;;;;;21.55;7.57;;;;;;;26.73;60.74;101293.13;4992730;28;20109;-90
2023/09/17 10:06:55;;;;;;;27.88;5.20;;;;;;;26.53;61.63;101295.91;4991879;28;20522;-89
2023/09/17 10:09:25;;;;;;;14.43;6.05;;;;;;;26.40;61.77;101265.56;4975952;28;20026;-92
2023/09/17 10:11:53;;;;;;;19.90;6.32;;;;;;;26.57;60.64;101288.06;4993873;28;20399;-91
2023/09/17 10:14:20;;;;;;;20.88;6.00;;;;;;;26.61;61.07;101300.34;4993242;28;20030;-89
2023/09/17 10:16:45;;;;;;;22.08;6.55;;;;;;;26.42;60.31;101268.97;4992119;28;20066;-92
2023/09/17 10:19:18;;;;;;;13.68;6.22;;;;;;;26.37;60.80;101282.53;5002410;28;20022;-91
2023/09/17 10:21:49;;;;;;;11.88;5.50;;;;;;;26.37;61.57;101310.13;4993440;28;20089;-92
2023/09/17 10:24:18;;;;;;;20.50;5.97;;;;;;;26.16;62.17;101313.06;4992643;28;20113;-89
2023/09/17 10:26:45;;;;;;;12.00;6.07;;;;;;;26.11;62.44;101316.44;4992154;28;20054;-88
2023/09/17 10:29:13;;;;;;;20.08;5.80;;;;;;;26.09;61.51;101306.66;4993061;28;20088;-89
2023/09/17 10:31:41;;;;;;;17.88;6.53;;;;;;;25.89;61.30;101292.84;4991695;28;20033;-89
2023/09/17 10:34:08;;;;;;;15.93;7.07;;;;;;;25.85;60.60;101297.91;4992987;28;20271;-89
2023/09/17 10:36:38;;;;;;;29.58;6.22;;;;;;;25.87;60.63;101304.06;4994101;28;20042;-90
2023/09/17 10:39:06;;;;;;;17.83;6.25;;;;;;;25.87;60.83;101295.78;4992519;28;20030;-87
2023/09/17 10:41:35;;;;;;;16.85;5.95;;;;;;;26.04;61.57;101321.09;4992206;28;20482;-89
2023/09/17 10:44:03;;;;;;;15.50;5.18;;;;;;;26.23;61.71;101325.81;4991865;28;20026;-90
2023/09/17 10:46:30;;;;;;;43.42;8.02;;;;;;;26.12;62.24;101304.31;4990944;28;20055;-89
2023/09/17 10:48:58;;;;;;;23.20;5.07;;;;;;;26.25;61.25;101323.69;4991631;28;20034;-92
2023/09/17 10:51:25;;;;;;;23.13;6.45;;;;;;;26.17;61.44;101304.59;4991655;28;20041;-88
2023/09/17 10:53:50;;;;;;;11.07;4.40;;;;;;;26.20;60.31;101304.19;4991511;28;20061;-91
2023/09/17 10:56:17;;;;;;;13.20;5.40;;;;;;;26.13;60.80;101306.03;4991065;28;20166;-90
2023/09/17 10:58:50;;;;;;;12.82;4.85;;;;;;;26.17;60.13;101309.25;4927254;28;20031;-84
2023/09/17 11:01:24;;;;;;;11.77;5.30;;;;;;;26.08;59.78;101288.44;4991046;28;20145;-89
2023/09/17 11:03:58;;;;;;;18.40;5.57;;;;;;;26.38;58.77;101295.28;4992922;28;20069;-89
2023/09/17 11:06:25;;;;;;;12.85;4.60;;;;;;;26.32;58.83;101288.69;4992846;28;20126;-90
2023/09/17 11:08:55;;;;;;;14.95;4.82;;;;;;;26.24;59.30;101277.84;4993119;28;20046;-86
2023/09/17 11:11:23;;;;;;;9.50;4.45;;;;;;;26.47;58.36;101294.84;4994268;28;20502;-91